Volk Field, Wisconsin
Current Conditions -  °F | °C
As of 9:58 PM on Wednesday 22 Oct 2014 (Local Time) from KVOK Reporting Station
Few Clouds Few Clouds  
Wind Chill: 39°   Ceiling: Unl
Heat Index: 39°   Visibility: 10mi
Dew Point: 37°   Wind: 3mph
Humidity: 93%   Direction: NA
Pressure: 30.18"   Gusts: NA
Location:  43.93°N, 90.27°W
Report Text: KVOK 230258Z VRB03KT 10SM FEW120 FEW180 04/03 A3018 RMK AO2A SLP231 57003
Loading
Personal Weather Stations






























Interactive Weather Map
Tropical Storm Tracking
New forecast layout! Learn more

10-Day Weather Forecast

Advertisements
Track Severe Weather on mobile